sensor_id;sensor_type;location;lat;lon;timestamp;P1;durP1;ratioP1;P2;durP2;ratioP2
7017;SDS011;3549;42.162;24.726;2023-04-12T00:00:39;17.10;;;9.47;;
7017;SDS011;3549;42.162;24.726;2023-04-12T00:03:05;18.27;;;9.83;;
7017;SDS011;3549;42.162;24.726;2023-04-12T00:05:31;14.80;;;8.37;;
7017;SDS011;3549;42.162;24.726;2023-04-12T00:07:58;15.93;;;9.00;;
7017;SDS011;3549;42.162;24.726;2023-04-12T00:10:26;14.23;;;7.43;;
7017;SDS011;3549;42.162;24.726;2023-04-12T00:12:51;12.63;;;7.87;;
7017;SDS011;3549;42.162;24.726;2023-04-12T00:15:17;14.37;;;8.60;;
7017;SDS011;3549;42.162;24.726;2023-04-12T00:17:43;11.73;;;7.20;;
7017;SDS011;3549;42.162;24.726;2023-04-12T00:20:08;12.77;;;8.13;;
7017;SDS011;3549;42.162;24.726;2023-04-12T00:22:38;9.33;;;6.20;;
7017;SDS011;3549;42.162;24.726;2023-04-12T00:25:05;12.93;;;7.60;;
7017;SDS011;3549;42.162;24.726;2023-04-12T00:27:31;10.87;;;7.13;;
7017;SDS011;3549;42.162;24.726;2023-04-12T00:29:56;15.33;;;8.90;;
7017;SDS011;3549;42.162;24.726;2023-04-12T00:32:22;11.30;;;7.43;;
7017;SDS011;3549;42.162;24.726;2023-04-12T00:34:47;13.57;;;7.83;;
7017;SDS011;3549;42.162;24.726;2023-04-12T00:37:12;13.87;;;8.40;;
7017;SDS011;3549;42.162;24.726;2023-04-12T00:39:38;11.17;;;5.50;;
7017;SDS011;3549;42.162;24.726;2023-04-12T00:42:03;11.93;;;7.47;;
7017;SDS011;3549;42.162;24.726;2023-04-12T00:44:29;13.43;;;8.00;;
7017;SDS011;3549;42.162;24.726;2023-04-12T00:46:56;12.77;;;8.03;;
7017;SDS011;3549;42.162;24.726;2023-04-12T00:49:22;12.07;;;7.40;;
7017;SDS011;3549;42.162;24.726;2023-04-12T00:51:48;14.20;;;8.17;;
7017;SDS011;3549;42.162;24.726;2023-04-12T00:54:15;12.20;;;8.13;;
7017;SDS011;3549;42.162;24.726;2023-04-12T00:56:42;12.63;;;8.00;;
7017;SDS011;3549;42.162;24.726;2023-04-12T00:59:08;12.90;;;7.93;;
7017;SDS011;3549;42.162;24.726;2023-04-12T01:01:34;14.83;;;8.10;;
7017;SDS011;3549;42.162;24.726;2023-04-12T01:04:05;13.53;;;8.40;;
7017;SDS011;3549;42.162;24.726;2023-04-12T01:06:33;12.10;;;7.20;;
7017;SDS011;3549;42.162;24.726;2023-04-12T01:12:07;13.63;;;8.23;;
7017;SDS011;3549;42.162;24.726;2023-04-12T01:14:55;13.23;;;6.93;;
7017;SDS011;3549;42.162;24.726;2023-04-12T01:17:27;11.63;;;6.53;;
7017;SDS011;3549;42.162;24.726;2023-04-12T01:22:44;11.97;;;7.20;;
7017;SDS011;3549;42.162;24.726;2023-04-12T01:25:33;12.37;;;7.80;;
7017;SDS011;3549;42.162;24.726;2023-04-12T01:28:06;12.30;;;7.90;;
7017;SDS011;3549;42.162;24.726;2023-04-12T01:30:34;11.20;;;6.53;;
7017;SDS011;3549;42.162;24.726;2023-04-12T01:33:02;13.00;;;7.70;;
7017;SDS011;3549;42.162;24.726;2023-04-12T01:35:31;13.67;;;7.57;;
7017;SDS011;3549;42.162;24.726;2023-04-12T01:37:57;15.80;;;8.57;;
7017;SDS011;3549;42.162;24.726;2023-04-12T01:40:24;17.47;;;8.60;;
7017;SDS011;3549;42.162;24.726;2023-04-12T01:43:10;16.40;;;8.73;;
7017;SDS011;3549;42.162;24.726;2023-04-12T01:45:36;16.07;;;9.43;;
7017;SDS011;3549;42.162;24.726;2023-04-12T01:48:09;18.80;;;9.43;;
7017;SDS011;3549;42.162;24.726;2023-04-12T01:56:25;18.53;;;9.67;;
7017;SDS011;3549;42.162;24.726;2023-04-12T01:58:55;15.13;;;8.47;;
7017;SDS011;3549;42.162;24.726;2023-04-12T02:01:23;15.27;;;9.20;;
7017;SDS011;3549;42.162;24.726;2023-04-12T02:03:49;17.53;;;9.77;;
7017;SDS011;3549;42.162;24.726;2023-04-12T02:06:19;15.97;;;9.47;;
7017;SDS011;3549;42.162;24.726;2023-04-12T02:08:47;18.00;;;9.80;;
7017;SDS011;3549;42.162;24.726;2023-04-12T02:11:13;13.00;;;7.20;;
7017;SDS011;3549;42.162;24.726;2023-04-12T02:13:39;12.80;;;7.43;;
7017;SDS011;3549;42.162;24.726;2023-04-12T02:16:05;13.87;;;8.10;;
7017;SDS011;3549;42.162;24.726;2023-04-12T02:18:32;16.60;;;8.97;;
7017;SDS011;3549;42.162;24.726;2023-04-12T02:20:59;14.07;;;8.50;;
7017;SDS011;3549;42.162;24.726;2023-04-12T02:23:24;13.57;;;7.70;;
7017;SDS011;3549;42.162;24.726;2023-04-12T02:25:51;15.33;;;9.20;;
7017;SDS011;3549;42.162;24.726;2023-04-12T02:28:16;14.40;;;8.17;;
7017;SDS011;3549;42.162;24.726;2023-04-12T02:30:41;18.73;;;9.77;;
7017;SDS011;3549;42.162;24.726;2023-04-12T02:33:07;15.93;;;10.10;;
7017;SDS011;3549;42.162;24.726;2023-04-12T02:35:33;15.43;;;9.00;;
7017;SDS011;3549;42.162;24.726;2023-04-12T02:38:02;15.30;;;8.73;;
7017;SDS011;3549;42.162;24.726;2023-04-12T02:40:32;12.90;;;8.50;;
7017;SDS011;3549;42.162;24.726;2023-04-12T02:42:58;15.40;;;7.77;;
7017;SDS011;3549;42.162;24.726;2023-04-12T02:45:24;16.63;;;9.93;;
7017;SDS011;3549;42.162;24.726;2023-04-12T02:47:49;17.47;;;9.23;;
7017;SDS011;3549;42.162;24.726;2023-04-12T02:50:15;15.40;;;8.93;;
7017;SDS011;3549;42.162;24.726;2023-04-12T02:52:40;18.00;;;9.50;;
7017;SDS011;3549;42.162;24.726;2023-04-12T02:55:06;15.40;;;9.20;;
7017;SDS011;3549;42.162;24.726;2023-04-12T02:57:32;17.63;;;9.20;;
7017;SDS011;3549;42.162;24.726;2023-04-12T02:59:57;18.97;;;8.37;;
7017;SDS011;3549;42.162;24.726;2023-04-12T03:02:23;18.37;;;9.07;;
7017;SDS011;3549;42.162;24.726;2023-04-12T03:04:48;20.93;;;10.00;;
7017;SDS011;3549;42.162;24.726;2023-04-12T03:07:17;17.83;;;9.43;;
7017;SDS011;3549;42.162;24.726;2023-04-12T03:09:44;15.90;;;9.00;;
7017;SDS011;3549;42.162;24.726;2023-04-12T03:12:13;15.73;;;8.67;;
7017;SDS011;3549;42.162;24.726;2023-04-12T03:14:40;17.67;;;9.20;;
7017;SDS011;3549;42.162;24.726;2023-04-12T03:17:06;17.63;;;9.03;;
7017;SDS011;3549;42.162;24.726;2023-04-12T03:19:32;22.27;;;10.97;;
7017;SDS011;3549;42.162;24.726;2023-04-12T03:21:59;22.33;;;10.37;;
7017;SDS011;3549;42.162;24.726;2023-04-12T03:24:25;17.70;;;10.20;;
7017;SDS011;3549;42.162;24.726;2023-04-12T03:26:51;16.43;;;9.70;;
7017;SDS011;3549;42.162;24.726;2023-04-12T03:29:17;12.40;;;7.60;;
7017;SDS011;3549;42.162;24.726;2023-04-12T03:31:42;19.30;;;10.07;;
7017;SDS011;3549;42.162;24.726;2023-04-12T03:34:08;15.33;;;8.90;;
7017;SDS011;3549;42.162;24.726;2023-04-12T03:36:33;12.87;;;8.53;;
7017;SDS011;3549;42.162;24.726;2023-04-12T03:38:58;13.07;;;8.60;;
7017;SDS011;3549;42.162;24.726;2023-04-12T03:41:24;23.37;;;13.10;;
7017;SDS011;3549;42.162;24.726;2023-04-12T03:43:50;19.23;;;11.03;;
7017;SDS011;3549;42.162;24.726;2023-04-12T03:46:16;14.17;;;9.30;;
7017;SDS011;3549;42.162;24.726;2023-04-12T03:48:41;16.20;;;10.50;;
7017;SDS011;3549;42.162;24.726;2023-04-12T03:51:07;18.53;;;10.13;;
7017;SDS011;3549;42.162;24.726;2023-04-12T03:53:36;18.27;;;10.80;;
7017;SDS011;3549;42.162;24.726;2023-04-12T03:56:04;21.13;;;10.60;;
7017;SDS011;3549;42.162;24.726;2023-04-12T03:58:30;18.80;;;9.97;;
7017;SDS011;3549;42.162;24.726;2023-04-12T04:00:57;17.33;;;11.00;;
7017;SDS011;3549;42.162;24.726;2023-04-12T04:03:30;19.37;;;11.40;;
7017;SDS011;3549;42.162;24.726;2023-04-12T04:05:58;20.73;;;11.67;;
7017;SDS011;3549;42.162;24.726;2023-04-12T04:08:25;16.77;;;10.50;;
7017;SDS011;3549;42.162;24.726;2023-04-12T04:10:52;19.77;;;11.40;;
7017;SDS011;3549;42.162;24.726;2023-04-12T04:13:17;20.07;;;11.43;;
7017;SDS011;3549;42.162;24.726;2023-04-12T04:15:43;20.20;;;11.40;;
7017;SDS011;3549;42.162;24.726;2023-04-12T04:18:08;18.70;;;11.13;;
7017;SDS011;3549;42.162;24.726;2023-04-12T04:20:34;20.50;;;12.20;;
7017;SDS011;3549;42.162;24.726;2023-04-12T04:22:59;20.27;;;11.97;;
7017;SDS011;3549;42.162;24.726;2023-04-12T04:25:25;16.90;;;10.80;;
7017;SDS011;3549;42.162;24.726;2023-04-12T04:27:57;20.53;;;11.23;;
7017;SDS011;3549;42.162;24.726;2023-04-12T04:30:23;27.57;;;15.07;;
7017;SDS011;3549;42.162;24.726;2023-04-12T04:32:49;20.20;;;12.20;;
7017;SDS011;3549;42.162;24.726;2023-04-12T04:35:15;21.10;;;11.10;;
7017;SDS011;3549;42.162;24.726;2023-04-12T04:37:41;19.30;;;10.50;;
7017;SDS011;3549;42.162;24.726;2023-04-12T04:40:07;20.20;;;11.30;;
7017;SDS011;3549;42.162;24.726;2023-04-12T04:42:33;19.60;;;10.47;;
7017;SDS011;3549;42.162;24.726;2023-04-12T04:44:59;19.07;;;9.90;;
7017;SDS011;3549;42.162;24.726;2023-04-12T04:47:26;20.67;;;10.57;;
7017;SDS011;3549;42.162;24.726;2023-04-12T04:49:54;19.43;;;10.90;;
7017;SDS011;3549;42.162;24.726;2023-04-12T04:52:21;18.00;;;9.97;;
7017;SDS011;3549;42.162;24.726;2023-04-12T04:54:47;19.40;;;10.73;;
7017;SDS011;3549;42.162;24.726;2023-04-12T04:57:12;17.97;;;9.47;;
7017;SDS011;3549;42.162;24.726;2023-04-12T04:59:38;19.23;;;10.40;;
7017;SDS011;3549;42.162;24.726;2023-04-12T05:02:04;16.77;;;10.67;;
7017;SDS011;3549;42.162;24.726;2023-04-12T05:04:29;23.03;;;11.80;;
7017;SDS011;3549;42.162;24.726;2023-04-12T05:06:55;22.93;;;11.43;;
7017;SDS011;3549;42.162;24.726;2023-04-12T05:09:20;18.40;;;9.67;;
7017;SDS011;3549;42.162;24.726;2023-04-12T05:11:46;22.27;;;13.03;;
7017;SDS011;3549;42.162;24.726;2023-04-12T05:14:11;29.50;;;14.67;;
7017;SDS011;3549;42.162;24.726;2023-04-12T05:16:37;20.53;;;10.20;;
7017;SDS011;3549;42.162;24.726;2023-04-12T05:19:02;24.23;;;13.27;;
7017;SDS011;3549;42.162;24.726;2023-04-12T05:21:27;25.80;;;12.83;;
7017;SDS011;3549;42.162;24.726;2023-04-12T05:23:53;22.30;;;11.47;;
7017;SDS011;3549;42.162;24.726;2023-04-12T05:26:18;26.80;;;12.97;;
7017;SDS011;3549;42.162;24.726;2023-04-12T05:28:45;22.13;;;12.73;;
7017;SDS011;3549;42.162;24.726;2023-04-12T05:31:11;28.33;;;15.37;;
7017;SDS011;3549;42.162;24.726;2023-04-12T05:33:36;29.07;;;16.63;;
7017;SDS011;3549;42.162;24.726;2023-04-12T05:36:02;18.97;;;10.20;;
7017;SDS011;3549;42.162;24.726;2023-04-12T05:38:28;19.17;;;11.57;;
7017;SDS011;3549;42.162;24.726;2023-04-12T05:40:53;25.90;;;14.10;;
7017;SDS011;3549;42.162;24.726;2023-04-12T05:43:19;23.97;;;14.47;;
7017;SDS011;3549;42.162;24.726;2023-04-12T05:45:44;19.73;;;12.07;;
7017;SDS011;3549;42.162;24.726;2023-04-12T05:48:10;29.17;;;15.20;;
7017;SDS011;3549;42.162;24.726;2023-04-12T05:50:35;26.87;;;15.07;;
7017;SDS011;3549;42.162;24.726;2023-04-12T05:53:00;28.87;;;14.37;;
7017;SDS011;3549;42.162;24.726;2023-04-12T05:55:27;25.60;;;13.07;;
7017;SDS011;3549;42.162;24.726;2023-04-12T05:57:53;21.80;;;11.97;;
7017;SDS011;3549;42.162;24.726;2023-04-12T06:00:19;24.07;;;14.23;;
7017;SDS011;3549;42.162;24.726;2023-04-12T06:02:46;27.70;;;15.90;;
7017;SDS011;3549;42.162;24.726;2023-04-12T06:05:12;28.53;;;14.67;;
7017;SDS011;3549;42.162;24.726;2023-04-12T06:07:39;21.23;;;13.43;;
7017;SDS011;3549;42.162;24.726;2023-04-12T06:10:06;23.67;;;13.67;;
7017;SDS011;3549;42.162;24.726;2023-04-12T06:12:32;23.13;;;12.93;;
7017;SDS011;3549;42.162;24.726;2023-04-12T06:14:58;23.43;;;12.47;;
7017;SDS011;3549;42.162;24.726;2023-04-12T06:17:23;23.77;;;14.27;;
7017;SDS011;3549;42.162;24.726;2023-04-12T06:19:49;23.10;;;12.83;;
7017;SDS011;3549;42.162;24.726;2023-04-12T06:22:14;24.87;;;14.20;;
7017;SDS011;3549;42.162;24.726;2023-04-12T06:24:40;24.53;;;13.50;;
7017;SDS011;3549;42.162;24.726;2023-04-12T06:27:05;23.57;;;14.17;;
7017;SDS011;3549;42.162;24.726;2023-04-12T06:29:30;18.57;;;10.93;;
7017;SDS011;3549;42.162;24.726;2023-04-12T06:31:56;23.93;;;14.40;;
7017;SDS011;3549;42.162;24.726;2023-04-12T06:34:21;21.63;;;13.27;;
7017;SDS011;3549;42.162;24.726;2023-04-12T06:36:50;23.70;;;13.33;;
7017;SDS011;3549;42.162;24.726;2023-04-12T06:39:41;24.30;;;13.73;;
7017;SDS011;3549;42.162;24.726;2023-04-12T06:42:19;23.33;;;12.67;;
7017;SDS011;3549;42.162;24.726;2023-04-12T06:44:52;20.87;;;12.87;;
7017;SDS011;3549;42.162;24.726;2023-04-12T06:47:25;26.37;;;15.37;;
7017;SDS011;3549;42.162;24.726;2023-04-12T06:49:59;25.40;;;15.33;;
7017;SDS011;3549;42.162;24.726;2023-04-12T06:52:33;22.90;;;13.30;;
7017;SDS011;3549;42.162;24.726;2023-04-12T06:55:12;26.73;;;12.90;;
7017;SDS011;3549;42.162;24.726;2023-04-12T06:57:48;18.63;;;11.63;;
7017;SDS011;3549;42.162;24.726;2023-04-12T07:00:25;29.07;;;16.97;;
7017;SDS011;3549;42.162;24.726;2023-04-12T07:02:54;26.73;;;13.87;;
7017;SDS011;3549;42.162;24.726;2023-04-12T07:05:23;21.50;;;12.13;;
7017;SDS011;3549;42.162;24.726;2023-04-12T07:07:48;28.47;;;14.03;;
7017;SDS011;3549;42.162;24.726;2023-04-12T07:10:16;28.20;;;15.60;;
7017;SDS011;3549;42.162;24.726;2023-04-12T07:12:48;14.70;;;9.13;;
7017;SDS011;3549;42.162;24.726;2023-04-12T07:15:19;16.93;;;9.47;;
7017;SDS011;3549;42.162;24.726;2023-04-12T07:17:59;28.87;;;17.10;;
7017;SDS011;3549;42.162;24.726;2023-04-12T07:20:30;16.00;;;9.50;;
7017;SDS011;3549;42.162;24.726;2023-04-12T07:22:56;18.20;;;10.10;;
7017;SDS011;3549;42.162;24.726;2023-04-12T07:28:13;10.77;;;6.00;;
7017;SDS011;3549;42.162;24.726;2023-04-12T07:30:58;10.30;;;5.90;;
7017;SDS011;3549;42.162;24.726;2023-04-12T07:33:26;8.47;;;4.43;;
7017;SDS011;3549;42.162;24.726;2023-04-12T07:35:54;6.17;;;3.00;;
7017;SDS011;3549;42.162;24.726;2023-04-12T07:38:20;9.80;;;4.87;;
7017;SDS011;3549;42.162;24.726;2023-04-12T07:40:47;5.60;;;2.60;;
7017;SDS011;3549;42.162;24.726;2023-04-12T07:43:14;6.77;;;3.00;;
7017;SDS011;3549;42.162;24.726;2023-04-12T07:45:40;6.30;;;3.00;;
7017;SDS011;3549;42.162;24.726;2023-04-12T07:48:05;5.50;;;2.60;;
7017;SDS011;3549;42.162;24.726;2023-04-12T07:50:31;7.00;;;3.67;;
7017;SDS011;3549;42.162;24.726;2023-04-12T07:52:57;6.53;;;3.60;;
7017;SDS011;3549;42.162;24.726;2023-04-12T07:55:43;9.67;;;3.43;;
7017;SDS011;3549;42.162;24.726;2023-04-12T07:58:17;6.57;;;4.10;;
7017;SDS011;3549;42.162;24.726;2023-04-12T08:00:44;8.00;;;3.30;;
7017;SDS011;3549;42.162;24.726;2023-04-12T08:03:10;6.40;;;4.13;;
7017;SDS011;3549;42.162;24.726;2023-04-12T08:05:37;6.13;;;4.10;;
7017;SDS011;3549;42.162;24.726;2023-04-12T08:08:03;10.33;;;5.70;;
7017;SDS011;3549;42.162;24.726;2023-04-12T08:10:29;8.97;;;5.60;;
7017;SDS011;3549;42.162;24.726;2023-04-12T08:12:55;9.57;;;5.53;;
7017;SDS011;3549;42.162;24.726;2023-04-12T08:15:21;14.20;;;8.70;;
7017;SDS011;3549;42.162;24.726;2023-04-12T08:17:46;7.30;;;4.40;;
7017;SDS011;3549;42.162;24.726;2023-04-12T08:20:12;13.27;;;6.97;;
7017;SDS011;3549;42.162;24.726;2023-04-12T08:22:40;8.87;;;5.70;;
7017;SDS011;3549;42.162;24.726;2023-04-12T08:25:06;9.37;;;4.47;;
7017;SDS011;3549;42.162;24.726;2023-04-12T08:27:32;10.57;;;4.70;;
7017;SDS011;3549;42.162;24.726;2023-04-12T08:29:58;12.63;;;6.20;;
7017;SDS011;3549;42.162;24.726;2023-04-12T08:32:23;14.70;;;6.87;;
7017;SDS011;3549;42.162;24.726;2023-04-12T08:34:49;10.73;;;5.37;;
7017;SDS011;3549;42.162;24.726;2023-04-12T08:37:15;9.90;;;5.60;;
7017;SDS011;3549;42.162;24.726;2023-04-12T08:39:41;10.27;;;5.93;;
7017;SDS011;3549;42.162;24.726;2023-04-12T08:42:07;14.13;;;7.03;;
7017;SDS011;3549;42.162;24.726;2023-04-12T08:44:33;17.07;;;6.77;;
7017;SDS011;3549;42.162;24.726;2023-04-12T08:47:01;17.47;;;8.87;;
7017;SDS011;3549;42.162;24.726;2023-04-12T08:49:32;15.50;;;8.47;;
7017;SDS011;3549;42.162;24.726;2023-04-12T08:52:07;11.77;;;6.43;;
7017;SDS011;3549;42.162;24.726;2023-04-12T08:54:34;8.73;;;5.13;;
7017;SDS011;3549;42.162;24.726;2023-04-12T08:57:01;8.90;;;4.77;;
7017;SDS011;3549;42.162;24.726;2023-04-12T08:59:29;9.63;;;6.23;;
7017;SDS011;3549;42.162;24.726;2023-04-12T09:01:56;8.43;;;5.27;;
7017;SDS011;3549;42.162;24.726;2023-04-12T09:04:23;13.30;;;6.10;;
7017;SDS011;3549;42.162;24.726;2023-04-12T09:06:50;14.83;;;8.10;;
7017;SDS011;3549;42.162;24.726;2023-04-12T09:09:16;10.77;;;5.20;;
7017;SDS011;3549;42.162;24.726;2023-04-12T09:11:42;12.60;;;6.90;;
7017;SDS011;3549;42.162;24.726;2023-04-12T09:14:21;9.07;;;5.37;;
7017;SDS011;3549;42.162;24.726;2023-04-12T09:16:48;10.43;;;5.50;;
7017;SDS011;3549;42.162;24.726;2023-04-12T09:19:15;13.73;;;6.00;;
7017;SDS011;3549;42.162;24.726;2023-04-12T09:21:51;10.00;;;5.77;;
7017;SDS011;3549;42.162;24.726;2023-04-12T09:24:18;8.40;;;5.70;;
7017;SDS011;3549;42.162;24.726;2023-04-12T09:26:48;8.30;;;5.07;;
7017;SDS011;3549;42.162;24.726;2023-04-12T09:29:21;10.67;;;5.17;;
7017;SDS011;3549;42.162;24.726;2023-04-12T09:31:59;9.77;;;4.97;;
7017;SDS011;3549;42.162;24.726;2023-04-12T09:34:32;12.83;;;5.70;;
7017;SDS011;3549;42.162;24.726;2023-04-12T09:37:13;5.50;;;3.80;;
7017;SDS011;3549;42.162;24.726;2023-04-12T09:39:47;7.00;;;4.40;;
7017;SDS011;3549;42.162;24.726;2023-04-12T09:42:49;7.47;;;4.90;;
7017;SDS011;3549;42.162;24.726;2023-04-12T09:45:19;6.60;;;4.43;;
7017;SDS011;3549;42.162;24.726;2023-04-12T09:47:49;7.30;;;4.63;;
7017;SDS011;3549;42.162;24.726;2023-04-12T09:50:23;8.13;;;5.37;;
7017;SDS011;3549;42.162;24.726;2023-04-12T09:52:51;6.07;;;4.27;;
7017;SDS011;3549;42.162;24.726;2023-04-12T09:55:18;7.13;;;4.23;;
7017;SDS011;3549;42.162;24.726;2023-04-12T09:57:46;8.70;;;4.80;;
7017;SDS011;3549;42.162;24.726;2023-04-12T10:00:15;10.30;;;5.87;;
7017;SDS011;3549;42.162;24.726;2023-04-12T10:05:21;10.50;;;4.50;;
7017;SDS011;3549;42.162;24.726;2023-04-12T10:07:49;8.40;;;4.60;;
7017;SDS011;3549;42.162;24.726;2023-04-12T10:10:16;7.30;;;4.57;;
7017;SDS011;3549;42.162;24.726;2023-04-12T10:12:43;6.03;;;4.30;;
7017;SDS011;3549;42.162;24.726;2023-04-12T10:15:19;5.93;;;4.20;;
7017;SDS011;3549;42.162;24.726;2023-04-12T10:17:51;6.23;;;4.60;;
7017;SDS011;3549;42.162;24.726;2023-04-12T10:20:21;6.10;;;3.93;;
7017;SDS011;3549;42.162;24.726;2023-04-12T10:22:48;5.67;;;4.40;;
7017;SDS011;3549;42.162;24.726;2023-04-12T10:25:25;7.10;;;4.67;;
7017;SDS011;3549;42.162;24.726;2023-04-12T10:28:03;8.13;;;3.93;;
7017;SDS011;3549;42.162;24.726;2023-04-12T10:30:58;5.87;;;4.37;;
7017;SDS011;3549;42.162;24.726;2023-04-12T10:33:45;6.23;;;4.20;;
7017;SDS011;3549;42.162;24.726;2023-04-12T10:36:55;8.63;;;4.07;;
7017;SDS011;3549;42.162;24.726;2023-04-12T10:39:41;6.30;;;3.43;;
7017;SDS011;3549;42.162;24.726;2023-04-12T10:42:16;6.63;;;3.80;;
7017;SDS011;3549;42.162;24.726;2023-04-12T10:44:55;5.00;;;3.53;;
7017;SDS011;3549;42.162;24.726;2023-04-12T10:50:22;4.27;;;3.40;;
7017;SDS011;3549;42.162;24.726;2023-04-12T10:55:51;5.93;;;2.60;;
7017;SDS011;3549;42.162;24.726;2023-04-12T11:01:13;14.40;;;6.30;;
7017;SDS011;3549;42.162;24.726;2023-04-12T11:11:46;3.00;;;2.43;;
7017;SDS011;3549;42.162;24.726;2023-04-12T11:14:13;2.60;;;2.00;;
7017;SDS011;3549;42.162;24.726;2023-04-12T11:19:36;4.50;;;2.90;;
7017;SDS011;3549;42.162;24.726;2023-04-12T11:22:03;3.40;;;2.90;;
7017;SDS011;3549;42.162;24.726;2023-04-12T11:24:29;3.37;;;2.50;;
7017;SDS011;3549;42.162;24.726;2023-04-12T11:26:55;3.60;;;2.57;;
7017;SDS011;3549;42.162;24.726;2023-04-12T11:32:09;3.10;;;2.80;;
7017;SDS011;3549;42.162;24.726;2023-04-12T11:34:43;5.50;;;2.93;;
7017;SDS011;3549;42.162;24.726;2023-04-12T11:37:12;13.77;;;6.47;;
7017;SDS011;3549;42.162;24.726;2023-04-12T11:39:42;13.10;;;7.40;;
7017;SDS011;3549;42.162;24.726;2023-04-12T11:42:12;7.00;;;4.70;;
7017;SDS011;3549;42.162;24.726;2023-04-12T11:44:45;6.77;;;4.23;;
7017;SDS011;3549;42.162;24.726;2023-04-12T11:47:18;3.47;;;2.63;;
7017;SDS011;3549;42.162;24.726;2023-04-12T11:49:48;3.83;;;3.00;;
7017;SDS011;3549;42.162;24.726;2023-04-12T11:52:22;9.20;;;5.77;;
7017;SDS011;3549;42.162;24.726;2023-04-12T11:54:53;13.03;;;7.50;;
7017;SDS011;3549;42.162;24.726;2023-04-12T11:57:23;11.30;;;6.87;;
7017;SDS011;3549;42.162;24.726;2023-04-12T11:59:48;7.60;;;4.97;;
7017;SDS011;3549;42.162;24.726;2023-04-12T12:02:17;6.83;;;3.93;;
7017;SDS011;3549;42.162;24.726;2023-04-12T12:04:44;8.73;;;5.10;;
7017;SDS011;3549;42.162;24.726;2023-04-12T12:07:14;8.53;;;4.73;;
7017;SDS011;3549;42.162;24.726;2023-04-12T12:09:43;12.13;;;5.23;;
7017;SDS011;3549;42.162;24.726;2023-04-12T12:12:16;15.50;;;6.90;;
7017;SDS011;3549;42.162;24.726;2023-04-12T12:14:45;11.67;;;6.23;;
7017;SDS011;3549;42.162;24.726;2023-04-12T12:17:16;8.30;;;3.70;;
7017;SDS011;3549;42.162;24.726;2023-04-12T12:19:47;8.47;;;5.70;;
7017;SDS011;3549;42.162;24.726;2023-04-12T12:22:18;3.57;;;2.60;;
7017;SDS011;3549;42.162;24.726;2023-04-12T12:25:06;3.57;;;2.80;;
7017;SDS011;3549;42.162;24.726;2023-04-12T12:27:32;3.17;;;2.67;;
7017;SDS011;3549;42.162;24.726;2023-04-12T12:30:05;4.30;;;2.70;;
7017;SDS011;3549;42.162;24.726;2023-04-12T12:32:32;7.63;;;3.33;;
7017;SDS011;3549;42.162;24.726;2023-04-12T12:35:00;11.00;;;4.63;;
7017;SDS011;3549;42.162;24.726;2023-04-12T12:37:27;10.33;;;5.70;;
7017;SDS011;3549;42.162;24.726;2023-04-12T12:42:37;16.53;;;8.97;;
7017;SDS011;3549;42.162;24.726;2023-04-12T12:45:18;17.27;;;8.90;;
7017;SDS011;3549;42.162;24.726;2023-04-12T12:47:54;8.97;;;5.10;;
7017;SDS011;3549;42.162;24.726;2023-04-12T12:50:23;18.20;;;10.03;;
7017;SDS011;3549;42.162;24.726;2023-04-12T12:52:53;8.67;;;5.10;;
7017;SDS011;3549;42.162;24.726;2023-04-12T12:55:20;5.67;;;3.83;;
7017;SDS011;3549;42.162;24.726;2023-04-12T12:57:47;12.73;;;7.20;;
7017;SDS011;3549;42.162;24.726;2023-04-12T13:00:14;20.10;;;10.80;;
7017;SDS011;3549;42.162;24.726;2023-04-12T13:02:46;14.47;;;8.53;;
7017;SDS011;3549;42.162;24.726;2023-04-12T13:05:12;20.10;;;10.67;;
7017;SDS011;3549;42.162;24.726;2023-04-12T13:07:38;8.37;;;3.87;;
7017;SDS011;3549;42.162;24.726;2023-04-12T13:10:04;10.27;;;5.93;;
7017;SDS011;3549;42.162;24.726;2023-04-12T13:12:31;5.60;;;4.03;;
7017;SDS011;3549;42.162;24.726;2023-04-12T13:14:57;3.30;;;2.30;;
7017;SDS011;3549;42.162;24.726;2023-04-12T13:17:25;3.53;;;2.20;;
7017;SDS011;3549;42.162;24.726;2023-04-12T13:19:50;4.20;;;1.93;;
7017;SDS011;3549;42.162;24.726;2023-04-12T13:22:16;13.73;;;8.37;;
7017;SDS011;3549;42.162;24.726;2023-04-12T13:24:42;22.80;;;13.00;;
7017;SDS011;3549;42.162;24.726;2023-04-12T13:27:08;14.27;;;7.23;;
7017;SDS011;3549;42.162;24.726;2023-04-12T13:29:33;6.93;;;4.50;;
7017;SDS011;3549;42.162;24.726;2023-04-12T13:32:04;17.43;;;9.70;;
7017;SDS011;3549;42.162;24.726;2023-04-12T13:34:42;2.97;;;2.13;;
7017;SDS011;3549;42.162;24.726;2023-04-12T13:37:09;5.10;;;2.77;;
7017;SDS011;3549;42.162;24.726;2023-04-12T13:39:37;3.60;;;2.40;;
7017;SDS011;3549;42.162;24.726;2023-04-12T13:42:08;6.77;;;4.00;;
7017;SDS011;3549;42.162;24.726;2023-04-12T13:45:00;4.50;;;3.57;;
7017;SDS011;3549;42.162;24.726;2023-04-12T13:47:33;4.40;;;2.87;;
7017;SDS011;3549;42.162;24.726;2023-04-12T13:50:03;4.23;;;1.87;;
7017;SDS011;3549;42.162;24.726;2023-04-12T13:52:38;5.87;;;3.87;;
7017;SDS011;3549;42.162;24.726;2023-04-12T13:55:07;4.80;;;3.10;;
7017;SDS011;3549;42.162;24.726;2023-04-12T13:57:38;4.13;;;2.10;;
7017;SDS011;3549;42.162;24.726;2023-04-12T14:00:04;7.57;;;3.10;;
7017;SDS011;3549;42.162;24.726;2023-04-12T14:02:30;5.47;;;3.03;;
7017;SDS011;3549;42.162;24.726;2023-04-12T14:04:56;8.67;;;4.40;;
7017;SDS011;3549;42.162;24.726;2023-04-12T14:07:21;6.97;;;3.63;;
7017;SDS011;3549;42.162;24.726;2023-04-12T14:09:48;3.53;;;1.93;;
7017;SDS011;3549;42.162;24.726;2023-04-12T14:12:13;4.37;;;2.20;;
7017;SDS011;3549;42.162;24.726;2023-04-12T14:14:39;3.07;;;2.10;;
7017;SDS011;3549;42.162;24.726;2023-04-12T14:17:04;3.73;;;2.20;;
7017;SDS011;3549;42.162;24.726;2023-04-12T14:19:30;4.60;;;2.30;;
7017;SDS011;3549;42.162;24.726;2023-04-12T14:21:56;3.30;;;1.93;;
7017;SDS011;3549;42.162;24.726;2023-04-12T14:24:21;3.50;;;2.00;;
7017;SDS011;3549;42.162;24.726;2023-04-12T14:26:47;3.93;;;2.37;;
7017;SDS011;3549;42.162;24.726;2023-04-12T14:29:14;5.80;;;2.60;;
7017;SDS011;3549;42.162;24.726;2023-04-12T14:31:39;6.90;;;3.50;;
7017;SDS011;3549;42.162;24.726;2023-04-12T14:34:05;4.27;;;2.93;;
7017;SDS011;3549;42.162;24.726;2023-04-12T14:36:32;5.10;;;1.90;;
7017;SDS011;3549;42.162;24.726;2023-04-12T14:38:58;2.87;;;2.20;;
7017;SDS011;3549;42.162;24.726;2023-04-12T14:41:24;6.27;;;3.60;;
7017;SDS011;3549;42.162;24.726;2023-04-12T14:43:49;4.87;;;2.80;;
7017;SDS011;3549;42.162;24.726;2023-04-12T14:46:15;5.67;;;2.13;;
7017;SDS011;3549;42.162;24.726;2023-04-12T14:48:41;4.57;;;2.50;;
7017;SDS011;3549;42.162;24.726;2023-04-12T14:51:09;9.10;;;3.30;;
7017;SDS011;3549;42.162;24.726;2023-04-12T14:53:35;7.57;;;3.60;;
7017;SDS011;3549;42.162;24.726;2023-04-12T14:56:00;6.13;;;3.33;;
7017;SDS011;3549;42.162;24.726;2023-04-12T14:58:29;7.80;;;4.23;;
7017;SDS011;3549;42.162;24.726;2023-04-12T15:00:55;6.03;;;3.90;;
7017;SDS011;3549;42.162;24.726;2023-04-12T15:03:22;5.50;;;3.20;;
7017;SDS011;3549;42.162;24.726;2023-04-12T15:05:48;3.57;;;2.23;;
7017;SDS011;3549;42.162;24.726;2023-04-12T15:08:13;3.73;;;2.50;;
7017;SDS011;3549;42.162;24.726;2023-04-12T15:10:39;2.27;;;1.90;;
7017;SDS011;3549;42.162;24.726;2023-04-12T15:13:05;2.80;;;1.97;;
7017;SDS011;3549;42.162;24.726;2023-04-12T15:15:30;4.07;;;2.30;;
7017;SDS011;3549;42.162;24.726;2023-04-12T15:17:55;2.47;;;1.80;;
7017;SDS011;3549;42.162;24.726;2023-04-12T15:20:21;7.87;;;2.70;;
7017;SDS011;3549;42.162;24.726;2023-04-12T15:22:46;6.53;;;3.73;;
7017;SDS011;3549;42.162;24.726;2023-04-12T15:25:12;5.57;;;2.60;;
7017;SDS011;3549;42.162;24.726;2023-04-12T15:27:37;5.13;;;2.70;;
7017;SDS011;3549;42.162;24.726;2023-04-12T15:30:03;4.97;;;2.00;;
7017;SDS011;3549;42.162;24.726;2023-04-12T15:32:32;3.93;;;2.27;;
7017;SDS011;3549;42.162;24.726;2023-04-12T15:35:01;3.10;;;2.00;;
7017;SDS011;3549;42.162;24.726;2023-04-12T15:37:29;3.97;;;2.40;;
7017;SDS011;3549;42.162;24.726;2023-04-12T15:40:01;6.00;;;2.93;;